<?xml version="1.0" encoding="UTF-8" standalone="no" ?>
<gpx xmlns="http://www.topografix.com/GPX/1/1" xmlns:xsi="http://www.w3.org/2001/XMLSchema-instance" xsi:schemaLocation="http://www.topografix.com/GPX/1/1 http://www.topografix.com/GPX/1/1/gpx.xsd" version="1.1" creator="VisuGPX - https://www.visugpx.com">
  <metadata>
    <name>rando Lallaing-Terril de Germignies</name>
    <desc><![CDATA[Rando du terril de Germignies coté gauche au depart de la mairie de Lallaing ]]></desc>
  </metadata>
  <trk>
    <name><![CDATA[OR-7814280--Lallaing:rando Terril de Germigny]]></name>
    <trkseg>
      <trkpt lat="50.39027" lon="3.16933">
        <ele>20</ele>
        <time>2017-08-18T17:30:44Z</time>
      </trkpt>
      <trkpt lat="50.39036" lon="3.16902">
        <ele>20</ele>
        <time>2017-08-18T17:32:44Z</time>
      </trkpt>
      <trkpt lat="50.39056" lon="3.16884">
        <ele>20</ele>
        <time>2017-08-18T17:34:44Z</time>
      </trkpt>
      <trkpt lat="50.39099" lon="3.16971">
        <ele>20</ele>
        <time>2017-08-18T17:36:44Z</time>
      </trkpt>
      <trkpt lat="50.3913" lon="3.16955">
        <ele>19</ele>
        <time>2017-08-18T17:38:44Z</time>
      </trkpt>
      <trkpt lat="50.39142" lon="3.16945">
        <ele>18</ele>
        <time>2017-08-18T17:40:44Z</time>
      </trkpt>
      <trkpt lat="50.39166" lon="3.16903">
        <ele>18</ele>
        <time>2017-08-18T17:42:44Z</time>
      </trkpt>
      <trkpt lat="50.39197" lon="3.16984">
        <ele>17</ele>
        <time>2017-08-18T17:44:44Z</time>
      </trkpt>
      <trkpt lat="50.3937" lon="3.17078">
        <ele>18</ele>
        <time>2017-08-18T17:46:44Z</time>
      </trkpt>
      <trkpt lat="50.39436" lon="3.17084">
        <ele>18</ele>
        <time>2017-08-18T17:48:44Z</time>
      </trkpt>
      <trkpt lat="50.39392" lon="3.17258">
        <ele>19</ele>
        <time>2017-08-18T17:50:44Z</time>
      </trkpt>
      <trkpt lat="50.39367" lon="3.17375">
        <ele>18</ele>
        <time>2017-08-18T17:52:44Z</time>
      </trkpt>
      <trkpt lat="50.39066" lon="3.18516">
        <ele>16</ele>
        <time>2017-08-18T17:54:44Z</time>
      </trkpt>
      <trkpt lat="50.38804" lon="3.18241">
        <ele>17</ele>
        <time>2017-08-18T17:56:44Z</time>
      </trkpt>
      <trkpt lat="50.38716" lon="3.18151">
        <ele>22</ele>
        <time>2017-08-18T17:58:44Z</time>
      </trkpt>
      <trkpt lat="50.38658" lon="3.18082">
        <ele>25</ele>
        <time>2017-08-18T18:00:44Z</time>
      </trkpt>
      <trkpt lat="50.38637" lon="3.17959">
        <ele>21</ele>
        <time>2017-08-18T18:02:44Z</time>
      </trkpt>
      <trkpt lat="50.38368" lon="3.17768">
        <ele>19</ele>
        <time>2017-08-18T18:04:44Z</time>
      </trkpt>
      <trkpt lat="50.38244" lon="3.17931">
        <ele>19</ele>
        <time>2017-08-18T18:06:44Z</time>
      </trkpt>
      <trkpt lat="50.38248" lon="3.17969">
        <ele>20</ele>
        <time>2017-08-18T18:08:44Z</time>
      </trkpt>
      <trkpt lat="50.38209" lon="3.17998">
        <ele>20</ele>
        <time>2017-08-18T18:10:44Z</time>
      </trkpt>
      <trkpt lat="50.38139" lon="3.18189">
        <ele>17</ele>
        <time>2017-08-18T18:12:44Z</time>
      </trkpt>
      <trkpt lat="50.38144" lon="3.18282">
        <ele>19</ele>
        <time>2017-08-18T18:14:44Z</time>
      </trkpt>
      <trkpt lat="50.38162" lon="3.18313">
        <ele>20</ele>
        <time>2017-08-18T18:16:44Z</time>
      </trkpt>
      <trkpt lat="50.3824" lon="3.1909">
        <ele>26</ele>
        <time>2017-08-18T18:18:44Z</time>
      </trkpt>
      <trkpt lat="50.38253" lon="3.19244">
        <ele>24</ele>
        <time>2017-08-18T18:20:44Z</time>
      </trkpt>
      <trkpt lat="50.38268" lon="3.19266">
        <ele>25</ele>
        <time>2017-08-18T18:22:44Z</time>
      </trkpt>
      <trkpt lat="50.38269" lon="3.19318">
        <ele>24</ele>
        <time>2017-08-18T18:24:44Z</time>
      </trkpt>
      <trkpt lat="50.383" lon="3.19346">
        <ele>25</ele>
        <time>2017-08-18T18:26:44Z</time>
      </trkpt>
      <trkpt lat="50.38316" lon="3.19344">
        <ele>26</ele>
        <time>2017-08-18T18:28:44Z</time>
      </trkpt>
      <trkpt lat="50.38339" lon="3.19364">
        <ele>27</ele>
        <time>2017-08-18T18:30:44Z</time>
      </trkpt>
      <trkpt lat="50.3836" lon="3.19363">
        <ele>29</ele>
        <time>2017-08-18T18:32:44Z</time>
      </trkpt>
      <trkpt lat="50.38372" lon="3.19374">
        <ele>29</ele>
        <time>2017-08-18T18:34:44Z</time>
      </trkpt>
      <trkpt lat="50.38376" lon="3.19441">
        <ele>27</ele>
        <time>2017-08-18T18:36:44Z</time>
      </trkpt>
      <trkpt lat="50.38408" lon="3.19496">
        <ele>28</ele>
        <time>2017-08-18T18:38:44Z</time>
      </trkpt>
      <trkpt lat="50.38439" lon="3.19494">
        <ele>27</ele>
        <time>2017-08-18T18:40:44Z</time>
      </trkpt>
      <trkpt lat="50.38456" lon="3.19476">
        <ele>28</ele>
        <time>2017-08-18T18:42:44Z</time>
      </trkpt>
      <trkpt lat="50.38469" lon="3.19502">
        <ele>26</ele>
        <time>2017-08-18T18:44:44Z</time>
      </trkpt>
      <trkpt lat="50.38492" lon="3.19494">
        <ele>26</ele>
        <time>2017-08-18T18:46:44Z</time>
      </trkpt>
      <trkpt lat="50.38582" lon="3.19387">
        <ele>28</ele>
        <time>2017-08-18T18:48:44Z</time>
      </trkpt>
      <trkpt lat="50.38624" lon="3.1936">
        <ele>29</ele>
        <time>2017-08-18T18:50:44Z</time>
      </trkpt>
      <trkpt lat="50.38659" lon="3.19308">
        <ele>32</ele>
        <time>2017-08-18T18:52:44Z</time>
      </trkpt>
      <trkpt lat="50.38705" lon="3.19271">
        <ele>31</ele>
        <time>2017-08-18T18:54:44Z</time>
      </trkpt>
      <trkpt lat="50.38741" lon="3.19165">
        <ele>31</ele>
        <time>2017-08-18T18:56:44Z</time>
      </trkpt>
      <trkpt lat="50.38761" lon="3.19107">
        <ele>32</ele>
        <time>2017-08-18T18:58:44Z</time>
      </trkpt>
      <trkpt lat="50.38794" lon="3.19074">
        <ele>31</ele>
        <time>2017-08-18T19:00:44Z</time>
      </trkpt>
      <trkpt lat="50.38795" lon="3.18918">
        <ele>33</ele>
        <time>2017-08-18T19:02:44Z</time>
      </trkpt>
      <trkpt lat="50.38787" lon="3.18729">
        <ele>33</ele>
        <time>2017-08-18T19:04:44Z</time>
      </trkpt>
      <trkpt lat="50.38762" lon="3.18646">
        <ele>33</ele>
        <time>2017-08-18T19:06:44Z</time>
      </trkpt>
      <trkpt lat="50.38729" lon="3.18601">
        <ele>33</ele>
        <time>2017-08-18T19:08:44Z</time>
      </trkpt>
      <trkpt lat="50.38699" lon="3.18595">
        <ele>34</ele>
        <time>2017-08-18T19:10:44Z</time>
      </trkpt>
      <trkpt lat="50.38596" lon="3.18614">
        <ele>35</ele>
        <time>2017-08-18T19:12:44Z</time>
      </trkpt>
      <trkpt lat="50.38586" lon="3.18355">
        <ele>37</ele>
        <time>2017-08-18T19:14:44Z</time>
      </trkpt>
      <trkpt lat="50.38558" lon="3.18322">
        <ele>36</ele>
        <time>2017-08-18T19:16:44Z</time>
      </trkpt>
      <trkpt lat="50.38477" lon="3.1834">
        <ele>34</ele>
        <time>2017-08-18T19:18:44Z</time>
      </trkpt>
      <trkpt lat="50.38339" lon="3.18367">
        <ele>34</ele>
        <time>2017-08-18T19:20:44Z</time>
      </trkpt>
      <trkpt lat="50.38361" lon="3.18658">
        <ele>37</ele>
        <time>2017-08-18T19:22:44Z</time>
      </trkpt>
      <trkpt lat="50.38346" lon="3.18674">
        <ele>37</ele>
        <time>2017-08-18T19:24:44Z</time>
      </trkpt>
      <trkpt lat="50.38336" lon="3.18693">
        <ele>37</ele>
        <time>2017-08-18T19:26:44Z</time>
      </trkpt>
      <trkpt lat="50.38425" lon="3.18937">
        <ele>38</ele>
        <time>2017-08-18T19:28:44Z</time>
      </trkpt>
      <trkpt lat="50.38425" lon="3.18961">
        <ele>38</ele>
        <time>2017-08-18T19:30:44Z</time>
      </trkpt>
      <trkpt lat="50.38432" lon="3.18979">
        <ele>39</ele>
        <time>2017-08-18T19:32:44Z</time>
      </trkpt>
      <trkpt lat="50.38452" lon="3.19193">
        <ele>39</ele>
        <time>2017-08-18T19:34:44Z</time>
      </trkpt>
      <trkpt lat="50.38444" lon="3.19286">
        <ele>36</ele>
        <time>2017-08-18T19:36:44Z</time>
      </trkpt>
      <trkpt lat="50.38445" lon="3.19379">
        <ele>33</ele>
        <time>2017-08-18T19:38:44Z</time>
      </trkpt>
      <trkpt lat="50.38453" lon="3.19468">
        <ele>28</ele>
        <time>2017-08-18T19:40:44Z</time>
      </trkpt>
      <trkpt lat="50.38441" lon="3.19487">
        <ele>28</ele>
        <time>2017-08-18T19:42:44Z</time>
      </trkpt>
      <trkpt lat="50.38421" lon="3.19493">
        <ele>28</ele>
        <time>2017-08-18T19:44:44Z</time>
      </trkpt>
      <trkpt lat="50.38405" lon="3.19483">
        <ele>28</ele>
        <time>2017-08-18T19:46:44Z</time>
      </trkpt>
      <trkpt lat="50.38382" lon="3.19434">
        <ele>28</ele>
        <time>2017-08-18T19:48:44Z</time>
      </trkpt>
      <trkpt lat="50.38376" lon="3.19365">
        <ele>30</ele>
        <time>2017-08-18T19:50:44Z</time>
      </trkpt>
      <trkpt lat="50.38342" lon="3.19356">
        <ele>28</ele>
        <time>2017-08-18T19:52:44Z</time>
      </trkpt>
      <trkpt lat="50.38305" lon="3.1934">
        <ele>26</ele>
        <time>2017-08-18T19:54:44Z</time>
      </trkpt>
      <trkpt lat="50.38291" lon="3.19333">
        <ele>25</ele>
        <time>2017-08-18T19:56:44Z</time>
      </trkpt>
      <trkpt lat="50.3827" lon="3.19296">
        <ele>24</ele>
        <time>2017-08-18T19:58:44Z</time>
      </trkpt>
      <trkpt lat="50.38262" lon="3.19242">
        <ele>25</ele>
        <time>2017-08-18T20:00:44Z</time>
      </trkpt>
      <trkpt lat="50.38158" lon="3.18311">
        <ele>19</ele>
        <time>2017-08-18T20:02:44Z</time>
      </trkpt>
      <trkpt lat="50.38146" lon="3.18302">
        <ele>19</ele>
        <time>2017-08-18T20:04:44Z</time>
      </trkpt>
      <trkpt lat="50.38137" lon="3.18211">
        <ele>18</ele>
        <time>2017-08-18T20:06:44Z</time>
      </trkpt>
      <trkpt lat="50.38202" lon="3.18004">
        <ele>20</ele>
        <time>2017-08-18T20:08:44Z</time>
      </trkpt>
      <trkpt lat="50.38241" lon="3.17968">
        <ele>20</ele>
        <time>2017-08-18T20:10:44Z</time>
      </trkpt>
      <trkpt lat="50.38248" lon="3.17955">
        <ele>20</ele>
        <time>2017-08-18T20:12:44Z</time>
      </trkpt>
      <trkpt lat="50.38238" lon="3.1793">
        <ele>19</ele>
        <time>2017-08-18T20:14:44Z</time>
      </trkpt>
      <trkpt lat="50.3841" lon="3.17719">
        <ele>19</ele>
        <time>2017-08-18T20:16:44Z</time>
      </trkpt>
      <trkpt lat="50.38478" lon="3.17632">
        <ele>19</ele>
        <time>2017-08-18T20:18:44Z</time>
      </trkpt>
      <trkpt lat="50.38504" lon="3.17616">
        <ele>19</ele>
        <time>2017-08-18T20:20:44Z</time>
      </trkpt>
      <trkpt lat="50.3868" lon="3.17447">
        <ele>16</ele>
        <time>2017-08-18T20:22:44Z</time>
      </trkpt>
      <trkpt lat="50.38715" lon="3.17414">
        <ele>17</ele>
        <time>2017-08-18T20:24:44Z</time>
      </trkpt>
      <trkpt lat="50.38826" lon="3.17331">
        <ele>17</ele>
        <time>2017-08-18T20:26:44Z</time>
      </trkpt>
      <trkpt lat="50.38865" lon="3.17253">
        <ele>18</ele>
        <time>2017-08-18T20:28:44Z</time>
      </trkpt>
      <trkpt lat="50.38917" lon="3.1707">
        <ele>19</ele>
        <time>2017-08-18T20:30:44Z</time>
      </trkpt>
      <trkpt lat="50.39" lon="3.16937">
        <ele>20</ele>
        <time>2017-08-18T20:32:44Z</time>
      </trkpt>
      <trkpt lat="50.39014" lon="3.16944">
        <ele>20</ele>
        <time>2017-08-18T20:34:44Z</time>
      </trkpt>
    </trkseg>
  </trk>
</gpx>